createdAt,value
2023-03-06T00:00:23.094Z,101106.81
2023-03-06T00:02:50.187Z,101112.94
2023-03-06T00:05:16.970Z,101103.31
2023-03-06T00:07:44.575Z,101084.88
2023-03-06T00:10:21.914Z,101091.00
2023-03-06T00:12:48.561Z,101082.25
2023-03-06T00:15:15.120Z,101095.38
2023-03-06T00:17:41.694Z,101074.34
2023-03-06T00:20:10.945Z,101084.84
2023-03-06T00:22:37.861Z,101077.88
2023-03-06T00:25:06.054Z,101070.81
2023-03-06T00:27:33.297Z,101068.22
2023-03-06T00:30:00.945Z,101054.22
2023-03-06T00:32:29.061Z,101066.47
2023-03-06T00:34:55.933Z,101061.22
2023-03-06T00:37:24.430Z,101062.09
2023-03-06T00:39:51.079Z,101044.56
2023-03-06T00:42:19.348Z,101045.47
2023-03-06T00:44:46.304Z,101043.72
2023-03-06T00:47:16.986Z,101025.31
2023-03-06T00:49:46.692Z,101035.81
2023-03-06T00:52:13.906Z,101032.31
2023-03-06T00:54:41.152Z,101017.44
2023-03-06T00:57:07.757Z,101015.69
2023-03-06T00:59:34.690Z,101021.81
2023-03-06T01:02:02.257Z,101019.19
2023-03-06T01:04:28.893Z,101015.69
2023-03-06T01:06:55.486Z,101006.06
2023-03-06T01:09:22.009Z,101015.69
2023-03-06T01:11:48.569Z,101012.19
2023-03-06T01:14:15.155Z,101005.19
2023-03-06T01:16:41.788Z,100992.06
2023-03-06T01:19:08.491Z,100997.28
2023-03-06T01:21:35.052Z,100992.94
2023-03-06T01:24:01.711Z,100990.28
2023-03-06T01:26:28.430Z,100994.66
2023-03-06T01:28:57.311Z,100993.81
2023-03-06T01:31:25.320Z,100988.56
2023-03-06T01:33:52.393Z,100993.81
2023-03-06T01:36:19.084Z,100986.78
2023-03-06T01:38:45.868Z,100985.06
2023-03-06T01:41:15.707Z,100992.91
2023-03-06T01:43:45.620Z,101003.41
2023-03-06T01:46:28.701Z,101003.41
2023-03-06T01:49:00.542Z,100997.28
2023-03-06T01:51:42.878Z,100994.66
2023-03-06T01:54:17.625Z,100989.41
2023-03-06T01:56:48.922Z,100963.16
2023-03-06T01:59:16.899Z,100973.63
2023-03-06T02:01:44.956Z,100981.50
2023-03-06T02:04:12.224Z,100971.91
2023-03-06T02:06:43.298Z,100968.38
2023-03-06T02:09:11.732Z,100967.50
2023-03-06T02:11:43.691Z,100954.38
2023-03-06T02:14:14.951Z,100951.72
2023-03-06T02:16:42.230Z,100958.72
2023-03-06T02:19:28.994Z,100956.09
2023-03-06T02:21:55.895Z,100947.31
2023-03-06T02:24:45.596Z,100956.91
2023-03-06T02:27:14.897Z,100958.69
2023-03-06T02:29:41.465Z,100963.06
2023-03-06T02:32:08.231Z,100960.44
2023-03-06T02:34:49.826Z,100952.53
2023-03-06T02:37:16.517Z,100947.28
2023-03-06T02:39:49.793Z,100952.56
2023-03-06T02:42:22.622Z,100945.53
2023-03-06T02:44:51.208Z,100946.44
2023-03-06T02:47:18.063Z,100941.19
2023-03-06T02:49:44.702Z,100925.44
2023-03-06T02:52:11.557Z,100926.31
2023-03-06T02:54:38.150Z,100936.81
2023-03-06T02:57:04.786Z,100911.47
2023-03-06T02:59:31.382Z,100909.72
2023-03-06T03:01:57.984Z,100904.50
2023-03-06T03:04:24.737Z,100910.63
2023-03-06T03:06:51.359Z,100901.03
2023-03-06T03:09:18.017Z,100888.75
2023-03-06T03:11:44.595Z,100892.28
2023-03-06T03:14:11.156Z,100891.41
2023-03-06T03:16:39.200Z,100887.03
2023-03-06T03:19:05.917Z,100876.56
2023-03-06T03:21:32.542Z,100876.53
2023-03-06T03:24:03.601Z,100877.41
2023-03-06T03:26:30.179Z,100880.91
2023-03-06T03:28:56.794Z,100870.44
2023-03-06T03:31:23.454Z,100872.19
2023-03-06T03:33:50.049Z,100873.03
2023-03-06T03:36:16.684Z,100859.91
2023-03-06T03:38:43.196Z,100860.78
2023-03-06T03:41:09.768Z,100863.41
2023-03-06T03:43:36.339Z,100862.53
2023-03-06T03:46:03.054Z,100849.44
2023-03-06T03:48:29.688Z,100852.03
2023-03-06T03:51:04.444Z,100840.69
2023-03-06T03:53:31.095Z,100843.28
2023-03-06T03:55:57.691Z,100839.78
2023-03-06T03:58:24.328Z,100847.63
2023-03-06T04:00:50.944Z,100844.16
2023-03-06T04:03:17.661Z,100850.25
2023-03-06T04:05:44.244Z,100834.53
2023-03-06T04:08:10.851Z,100838.88
2023-03-06T04:10:39.398Z,100839.75
2023-03-06T04:13:09.582Z,100845.03
2023-03-06T04:15:36.972Z,100827.50
2023-03-06T04:18:03.670Z,100831.88
2023-03-06T04:20:30.547Z,100818.72
2023-03-06T04:22:57.187Z,100819.59
2023-03-06T04:25:23.858Z,100827.50
2023-03-06T04:27:50.491Z,100810.84
2023-03-06T04:30:17.204Z,100825.75
2023-03-06T04:32:43.870Z,100809.97
2023-03-06T04:35:10.732Z,100820.50
2023-03-06T04:37:37.328Z,100809.94
2023-03-06T04:40:04.316Z,100809.94
2023-03-06T04:42:31.262Z,100809.94
2023-03-06T04:44:57.826Z,100809.94
2023-03-06T04:47:24.491Z,100808.19
2023-03-06T04:49:51.091Z,100800.31
2023-03-06T04:52:17.705Z,100803.81
2023-03-06T04:54:46.012Z,100798.56
2023-03-06T04:57:14.128Z,100800.31
2023-03-06T04:59:40.743Z,100797.69
2023-03-06T05:02:07.534Z,100794.16
2023-03-06T05:04:34.383Z,100795.91
2023-03-06T05:07:00.974Z,100791.53
2023-03-06T05:09:27.664Z,100799.41
2023-03-06T05:11:54.258Z,100795.91
2023-03-06T05:14:21.935Z,100791.50
2023-03-06T05:16:48.554Z,100791.47
2023-03-06T05:19:15.416Z,100792.34
2023-03-06T05:21:42.159Z,100796.75
2023-03-06T05:24:09.732Z,100788.84
2023-03-06T05:26:36.326Z,100796.69
2023-03-06T05:29:02.972Z,100787.97
2023-03-06T05:31:29.513Z,100791.44
2023-03-06T05:33:57.524Z,100781.84
2023-03-06T05:36:24.707Z,100778.28
2023-03-06T05:38:51.357Z,100771.28
2023-03-06T05:41:18.012Z,100776.53
2023-03-06T05:43:44.643Z,100772.16
2023-03-06T05:46:11.924Z,100779.13
2023-03-06T05:48:38.636Z,100765.16
2023-03-06T05:51:05.754Z,100772.16
2023-03-06T05:53:32.798Z,100773.91
2023-03-06T05:56:03.907Z,100766.03
2023-03-06T05:58:32.551Z,100767.81
2023-03-06T06:00:59.819Z,100761.69
2023-03-06T06:03:26.998Z,100770.41
2023-03-06T06:05:53.576Z,100766.97
2023-03-06T06:08:20.642Z,100773.97
2023-03-06T06:10:47.272Z,100788.84
2023-03-06T06:13:13.863Z,100780.97
2023-03-06T06:15:40.474Z,100790.59
2023-03-06T06:18:07.043Z,100788.00
2023-03-06T06:20:33.655Z,100786.22
2023-03-06T06:23:00.254Z,100787.09
2023-03-06T06:25:26.841Z,100799.38
2023-03-06T06:27:55.334Z,100790.59
2023-03-06T06:30:22.688Z,100787.97
2023-03-06T06:32:49.693Z,100801.94
2023-03-06T06:35:16.405Z,100795.81
2023-03-06T06:37:42.903Z,100783.56
2023-03-06T06:40:10.186Z,100788.75
2023-03-06T06:42:39.822Z,100793.13
2023-03-06T06:45:08.338Z,100785.25
2023-03-06T06:47:34.977Z,100795.75
2023-03-06T06:50:01.644Z,100789.63
2023-03-06T06:52:28.374Z,100791.38
2023-03-06T06:54:55.132Z,100793.06
2023-03-06T06:57:21.898Z,100791.31
2023-03-06T06:59:48.444Z,100785.19
2023-03-06T07:02:16.418Z,100795.63
2023-03-06T07:05:00.297Z,100788.63
2023-03-06T07:07:31.104Z,100797.34
2023-03-06T07:09:57.697Z,100800.84
2023-03-06T07:12:24.312Z,100793.81
2023-03-06T07:14:50.900Z,100798.19
2023-03-06T07:17:17.490Z,100819.19
2023-03-06T07:19:44.013Z,100814.81
2023-03-06T07:22:10.585Z,100812.16
2023-03-06T07:24:37.105Z,100803.41
2023-03-06T07:27:04.224Z,100812.09
2023-03-06T07:29:32.843Z,100807.63
2023-03-06T07:31:59.527Z,100812.84
2023-03-06T07:34:26.143Z,100823.28
2023-03-06T07:36:52.709Z,100814.38
2023-03-06T07:39:19.317Z,100817.81
2023-03-06T07:41:45.990Z,100807.09
2023-03-06T07:44:12.617Z,100812.13
2023-03-06T07:46:39.250Z,100812.78
2023-03-06T07:49:05.835Z,100810.81
2023-03-06T07:51:32.419Z,100809.72
2023-03-06T07:53:59.083Z,100806.06
2023-03-06T07:56:25.649Z,100798.03
2023-03-06T07:58:52.319Z,100812.03
2023-03-06T08:01:23.402Z,100807.69
2023-03-06T08:03:50.505Z,100811.16
2023-03-06T08:06:20.729Z,100812.03
2023-03-06T08:08:49.289Z,100806.78
2023-03-06T08:11:17.772Z,100808.44
2023-03-06T08:13:44.419Z,100805.00
2023-03-06T08:16:11.537Z,100814.59
2023-03-06T08:18:39.652Z,100812.03
2023-03-06T08:21:13.125Z,100816.34
2023-03-06T08:23:40.397Z,100818.19
2023-03-06T08:26:11.004Z,100811.13
2023-03-06T08:28:37.791Z,100823.38
2023-03-06T08:31:12.867Z,100811.94
2023-03-06T08:33:40.168Z,100807.59
2023-03-06T08:36:06.903Z,100813.66
2023-03-06T08:38:33.473Z,100813.63
2023-03-06T08:41:00.029Z,100814.41
2023-03-06T08:43:26.737Z,100809.22
2023-03-06T08:45:56.225Z,100817.03
2023-03-06T08:48:23.134Z,100810.81
2023-03-06T08:50:49.798Z,100807.16
2023-03-06T08:53:17.588Z,100804.25
2023-03-06T08:55:47.231Z,100805.63
2023-03-06T08:58:13.734Z,100798.72
2023-03-06T09:00:40.479Z,100803.13
2023-03-06T09:03:07.101Z,100803.72
2023-03-06T09:05:34.041Z,100797.31
2023-03-06T09:08:00.911Z,100790.25
2023-03-06T09:10:28.483Z,100788.00
2023-03-06T09:12:55.467Z,100790.34
2023-03-06T09:15:24.715Z,100795.66
2023-03-06T09:17:52.373Z,100797.06
2023-03-06T09:20:19.067Z,100794.09
2023-03-06T09:22:46.057Z,100793.03
2023-03-06T09:25:14.417Z,100790.88
2023-03-06T09:27:41.261Z,100796.56
2023-03-06T09:30:09.105Z,100789.88
2023-03-06T09:32:35.731Z,100788.38
2023-03-06T09:35:02.363Z,100788.22
2023-03-06T09:37:29.047Z,100790.84
2023-03-06T09:39:55.629Z,100781.03
2023-03-06T09:42:23.635Z,100776.88
2023-03-06T09:45:02.230Z,100783.22
2023-03-06T09:47:53.028Z,100784.03
2023-03-06T09:50:24.635Z,100781.53
2023-03-06T09:53:15.257Z,100785.94
2023-03-06T09:55:46.660Z,100779.16
2023-03-06T09:58:21.890Z,100779.72
2023-03-06T10:01:16.264Z,100780.34
2023-03-06T10:04:11.457Z,100783.69
2023-03-06T10:06:55.340Z,100791.34
2023-03-06T10:09:41.923Z,100792.53
2023-03-06T10:12:25.497Z,100796.66
2023-03-06T10:15:22.366Z,100801.13
2023-03-06T10:17:49.124Z,100791.22
2023-03-06T10:20:29.278Z,100792.41
2023-03-06T10:23:24.073Z,100791.03
2023-03-06T10:26:02.344Z,100787.50
2023-03-06T10:28:41.269Z,100785.03
2023-03-06T10:31:20.582Z,100793.63
2023-03-06T10:33:57.928Z,100784.81
2023-03-06T10:36:29.642Z,100782.38
2023-03-06T10:38:58.568Z,100785.88
2023-03-06T10:41:31.689Z,100780.06
2023-03-06T10:44:01.061Z,100785.44
2023-03-06T10:46:30.780Z,100781.22
2023-03-06T10:49:00.628Z,100778.66
2023-03-06T10:51:29.397Z,100779.19
2023-03-06T10:54:00.113Z,100776.63
2023-03-06T10:56:39.285Z,100775.66
2023-03-06T10:59:17.156Z,100771.53
2023-03-06T11:01:47.174Z,100767.44
2023-03-06T11:04:25.175Z,100765.09
2023-03-06T11:07:09.019Z,100765.91
2023-03-06T11:09:36.182Z,100757.59
2023-03-06T11:12:22.592Z,100760.31
2023-03-06T11:15:14.156Z,100749.69
2023-03-06T11:17:54.778Z,100747.97
2023-03-06T11:20:53.310Z,100746.38
2023-03-06T11:23:37.459Z,100741.06
2023-03-06T11:26:16.464Z,100742.13
2023-03-06T11:28:52.017Z,100740.72
2023-03-06T11:31:32.192Z,100734.63
2023-03-06T11:34:14.208Z,100738.00
2023-03-06T11:36:58.432Z,100729.47
2023-03-06T11:39:36.901Z,100727.69
2023-03-06T11:42:16.981Z,100723.72
2023-03-06T11:45:00.278Z,100726.44
2023-03-06T11:47:34.980Z,100717.47
2023-03-06T11:50:07.464Z,100715.16
2023-03-06T11:52:49.031Z,100713.72
2023-03-06T11:55:28.699Z,100717.22
2023-03-06T11:58:18.074Z,100721.28
2023-03-06T12:00:57.495Z,100716.34
2023-03-06T12:03:56.891Z,100709.03
2023-03-06T12:07:20.772Z,100707.88
2023-03-06T12:09:55.086Z,100705.72
2023-03-06T12:12:46.479Z,100706.19
2023-03-06T12:15:23.388Z,100704.69
2023-03-06T12:18:08.399Z,100705.63
2023-03-06T12:20:54.154Z,100695.53
2023-03-06T12:23:42.328Z,100696.34
2023-03-06T12:26:34.462Z,100693.56
2023-03-06T12:29:38.232Z,100695.53
2023-03-06T12:32:14.853Z,100683.34
2023-03-06T12:34:58.727Z,100693.13
2023-03-06T12:37:48.613Z,100681.63
2023-03-06T12:40:45.765Z,100681.41
2023-03-06T12:43:27.531Z,100682.28
2023-03-06T12:46:05.258Z,100674.06
2023-03-06T12:48:36.031Z,100675.59
2023-03-06T12:51:06.670Z,100678.38
2023-03-06T12:53:35.939Z,100675.03
2023-03-06T12:56:04.127Z,100665.47
2023-03-06T12:58:30.582Z,100670.06
2023-03-06T13:01:37.518Z,100666.59
2023-03-06T13:04:30.512Z,100652.16
2023-03-06T13:07:18.978Z,100650.16
2023-03-06T13:10:12.921Z,100651.00
2023-03-06T13:12:58.085Z,100640.16
2023-03-06T13:15:36.373Z,100647.09
2023-03-06T13:18:22.834Z,100646.19
2023-03-06T13:20:54.409Z,100638.28
2023-03-06T13:23:32.735Z,100621.41
2023-03-06T13:26:04.265Z,100625.09
2023-03-06T13:28:40.325Z,100619.72
2023-03-06T13:31:18.137Z,100613.84
2023-03-06T13:33:58.932Z,100614.69
2023-03-06T13:36:39.018Z,100605.97
2023-03-06T13:39:10.878Z,100601.84
2023-03-06T13:41:42.557Z,100600.75
2023-03-06T13:44:24.475Z,100593.78
2023-03-06T13:47:01.594Z,100587.75
2023-03-06T13:49:29.840Z,100585.25
2023-03-06T13:52:21.098Z,100587.13
2023-03-06T13:55:13.202Z,100587.41
2023-03-06T13:57:48.875Z,100584.00
2023-03-06T14:00:33.608Z,100583.47
2023-03-06T14:03:03.229Z,100582.00
2023-03-06T14:05:50.782Z,100572.22
2023-03-06T14:08:28.464Z,100573.16
2023-03-06T14:11:05.723Z,100566.94
2023-03-06T14:13:47.391Z,100567.91
2023-03-06T14:16:22.313Z,100561.84
2023-03-06T14:18:52.771Z,100557.41
2023-03-06T14:21:31.912Z,100552.28
2023-03-06T14:24:04.375Z,100554.91
2023-03-06T14:26:41.495Z,100547.75
2023-03-06T14:29:21.495Z,100533.00
2023-03-06T14:31:53.933Z,100545.50
2023-03-06T14:34:28.466Z,100544.00
2023-03-06T14:36:59.915Z,100542.50
2023-03-06T14:39:26.814Z,100535.50
2023-03-06T14:42:06.257Z,100532.09
2023-03-06T14:44:32.812Z,100529.66
2023-03-06T14:47:17.819Z,100523.63
2023-03-06T14:49:44.329Z,100529.03
2023-03-06T14:52:20.427Z,100532.72
2023-03-06T14:54:52.073Z,100525.13
2023-03-06T14:57:23.275Z,100534.38
2023-03-06T14:59:58.848Z,100528.59
2023-03-06T15:02:32.735Z,100529.88
2023-03-06T15:05:13.396Z,100517.06
2023-03-06T15:07:42.681Z,100525.19
2023-03-06T15:10:30.628Z,100524.38
2023-03-06T15:13:18.560Z,100505.78
2023-03-06T15:16:12.697Z,100508.63
2023-03-06T15:18:59.074Z,100494.50
2023-03-06T15:21:28.603Z,100497.19
2023-03-06T15:23:57.211Z,100498.88
2023-03-06T15:26:31.142Z,100494.44
2023-03-06T15:29:24.249Z,100496.41
2023-03-06T15:31:51.115Z,100489.31
2023-03-06T15:34:23.710Z,100504.41
2023-03-06T15:36:56.099Z,100498.25
2023-03-06T15:39:35.667Z,100498.25
2023-03-06T15:42:16.027Z,100495.66
2023-03-06T15:44:42.730Z,100485.19
2023-03-06T15:47:11.742Z,100489.63
2023-03-06T15:49:39.531Z,100483.56
2023-03-06T15:52:07.637Z,100478.16
2023-03-06T15:54:35.058Z,100466.06
2023-03-06T15:57:05.473Z,100468.06
2023-03-06T15:59:43.004Z,100461.94
2023-03-06T16:02:21.600Z,100463.03
2023-03-06T16:04:49.291Z,100465.69
2023-03-06T16:07:16.597Z,100465.94
2023-03-06T16:09:44.036Z,100465.03
2023-03-06T16:12:17.518Z,100460.84
2023-03-06T16:14:47.389Z,100454.81
2023-03-06T16:17:15.340Z,100454.16
2023-03-06T16:19:43.024Z,100452.63
2023-03-06T16:22:09.837Z,100453.72
2023-03-06T16:24:37.126Z,100455.56
2023-03-06T16:27:04.654Z,100456.63
2023-03-06T16:29:31.634Z,100452.44
2023-03-06T16:31:58.909Z,100459.56
2023-03-06T16:34:25.473Z,100464.00
2023-03-06T16:36:52.484Z,100449.16
2023-03-06T16:39:22.577Z,100453.69
2023-03-06T16:41:52.102Z,100446.75
2023-03-06T16:44:19.714Z,100445.06
2023-03-06T16:46:48.474Z,100437.22
2023-03-06T16:49:23.217Z,100432.16
2023-03-06T16:51:50.860Z,100438.31
2023-03-06T16:54:17.492Z,100434.84
2023-03-06T16:56:44.909Z,100423.53
2023-03-06T16:59:12.458Z,100433.38
2023-03-06T17:01:43.014Z,100426.38
2023-03-06T17:04:10.045Z,100439.66
2023-03-06T17:06:36.807Z,100424.81
2023-03-06T17:09:04.001Z,100426.63
2023-03-06T17:11:30.520Z,100421.38
2023-03-06T17:13:57.100Z,100410.88
2023-03-06T17:16:23.685Z,100409.09
2023-03-06T17:18:50.545Z,100396.03
2023-03-06T17:21:17.173Z,100398.66
2023-03-06T17:23:44.681Z,100401.34
2023-03-06T17:26:18.830Z,100394.34
2023-03-06T17:28:46.568Z,100390.13
2023-03-06T17:31:17.355Z,100392.78
2023-03-06T17:33:45.089Z,100387.56
2023-03-06T17:36:14.264Z,100394.63
2023-03-06T17:38:42.129Z,100384.91
2023-03-06T17:41:10.920Z,100381.44
2023-03-06T17:43:38.531Z,100376.16
2023-03-06T17:46:11.159Z,100378.00
2023-03-06T17:48:39.070Z,100378.88
2023-03-06T17:51:07.401Z,100382.47
2023-03-06T17:53:34.369Z,100370.22
2023-03-06T17:56:04.150Z,100365.81
2023-03-06T17:58:30.703Z,100359.81
2023-03-06T18:00:57.224Z,100370.41
2023-03-06T18:03:23.813Z,100360.72
2023-03-06T18:06:04.591Z,100361.63
2023-03-06T18:08:32.203Z,100370.44
2023-03-06T18:11:00.310Z,100358.19
2023-03-06T18:13:26.926Z,100365.22
2023-03-06T18:15:53.559Z,100356.47
2023-03-06T18:18:20.388Z,100357.38
2023-03-06T18:20:47.379Z,100360.88
2023-03-06T18:23:14.062Z,100351.25
2023-03-06T18:25:41.383Z,100350.50
2023-03-06T18:28:07.970Z,100346.13
2023-03-06T18:30:36.026Z,100349.66
2023-03-06T18:33:02.645Z,100343.53
2023-03-06T18:35:29.668Z,100332.25
2023-03-06T18:37:56.272Z,100319.16
2023-03-06T18:40:24.756Z,100328.03
2023-03-06T18:42:54.676Z,100322.00
2023-03-06T18:45:21.295Z,100320.22
2023-03-06T18:47:47.866Z,100309.69
2023-03-06T18:50:17.404Z,100306.19
2023-03-06T18:52:44.693Z,100306.16
2023-03-06T18:55:12.301Z,100303.56
2023-03-06T18:57:39.776Z,100304.44
2023-03-06T19:00:07.458Z,100300.97
2023-03-06T19:02:33.982Z,100290.50
2023-03-06T19:05:00.485Z,100284.47
2023-03-06T19:07:27.311Z,100292.50
2023-03-06T19:09:53.909Z,100282.91
2023-03-06T19:12:20.478Z,100275.91
2023-03-06T19:14:47.085Z,100265.41
2023-03-06T19:17:13.693Z,100264.63
2023-03-06T19:19:40.280Z,100261.28
2023-03-06T19:22:06.832Z,100267.41
2023-03-06T19:24:33.948Z,100262.16
2023-03-06T19:27:00.498Z,100257.78
2023-03-06T19:29:27.443Z,100259.59
2023-03-06T19:31:57.046Z,100254.34
2023-03-06T19:34:23.665Z,100251.69
2023-03-06T19:36:50.789Z,100248.22
2023-03-06T19:39:17.380Z,100239.47
2023-03-06T19:41:46.406Z,100241.19
2023-03-06T19:44:14.540Z,100230.75
2023-03-06T19:46:41.102Z,100230.69
2023-03-06T19:49:11.991Z,100228.13
2023-03-06T19:51:38.652Z,100225.50
2023-03-06T19:54:05.314Z,100222.03
2023-03-06T19:56:33.532Z,100211.53
2023-03-06T19:59:00.239Z,100207.97
2023-03-06T20:01:28.205Z,100203.63
2023-03-06T20:03:59.855Z,100200.13
2023-03-06T20:06:33.614Z,100184.31
2023-03-06T20:09:07.382Z,100182.59
2023-03-06T20:11:34.628Z,100178.19
2023-03-06T20:14:03.679Z,100172.88
2023-03-06T20:16:31.238Z,100173.75
2023-03-06T20:19:00.430Z,100162.31
2023-03-06T20:21:29.623Z,100154.44
2023-03-06T20:23:57.989Z,100154.41
2023-03-06T20:26:27.372Z,100150.00
2023-03-06T20:28:54.782Z,100151.66
2023-03-06T20:31:24.373Z,100134.97
2023-03-06T20:33:53.395Z,100133.13
2023-03-06T20:36:27.882Z,100121.72
2023-03-06T20:38:56.382Z,100121.63
2023-03-06T20:41:26.395Z,100129.50
2023-03-06T20:43:54.080Z,100116.34
2023-03-06T20:46:23.013Z,100108.44
2023-03-06T20:48:52.693Z,100108.34
2023-03-06T20:51:22.155Z,100106.50
2023-03-06T20:53:51.148Z,100097.72
2023-03-06T20:56:20.692Z,100095.00
2023-03-06T20:58:47.238Z,100085.28
2023-03-06T21:01:22.400Z,100073.88
2023-03-06T21:03:49.132Z,100072.97
2023-03-06T21:06:16.640Z,100073.78
2023-03-06T21:08:43.295Z,100077.22
2023-03-06T21:11:09.865Z,100067.53
2023-03-06T21:13:36.451Z,100074.56
2023-03-06T21:16:11.728Z,100059.59
2023-03-06T21:18:39.738Z,100058.66
2023-03-06T21:21:12.244Z,100052.44
2023-03-06T21:23:39.538Z,100055.94
2023-03-06T21:26:06.254Z,100054.13
2023-03-06T21:28:33.335Z,100040.97
2023-03-06T21:31:01.606Z,100037.34
2023-03-06T21:33:28.644Z,100046.13
2023-03-06T21:35:55.386Z,100049.53
2023-03-06T21:38:21.929Z,100044.28
2023-03-06T21:40:48.504Z,100038.06
2023-03-06T21:43:17.400Z,100035.38
2023-03-06T21:45:45.844Z,100024.81
2023-03-06T21:48:13.634Z,100039.72
2023-03-06T21:50:41.170Z,100039.63
2023-03-06T21:53:08.865Z,100050.97
2023-03-06T21:55:40.472Z,100039.56
2023-03-06T21:58:07.578Z,100036.88
2023-03-06T22:00:37.342Z,100032.41
2023-03-06T22:03:04.908Z,100020.06
2023-03-06T22:05:34.611Z,100030.53
2023-03-06T22:08:01.349Z,100034.88
2023-03-06T22:10:28.465Z,100033.06
2023-03-06T22:12:55.061Z,100019.91
2023-03-06T22:15:21.821Z,100023.38
2023-03-06T22:17:48.557Z,100012.81
2023-03-06T22:20:15.404Z,100014.50
2023-03-06T22:22:42.318Z,100018.91
2023-03-06T22:25:11.780Z,100018.91
2023-03-06T22:27:38.841Z,100009.25
2023-03-06T22:30:05.841Z,100014.63
2023-03-06T22:32:32.535Z,100006.72
2023-03-06T22:34:59.049Z,100012.88
2023-03-06T22:37:25.592Z,100002.38
2023-03-06T22:39:52.181Z,100004.13
2023-03-06T22:42:18.737Z,100010.28
2023-03-06T22:44:45.289Z,99998.00
2023-03-06T22:47:11.844Z,100004.22
2023-03-06T22:49:38.444Z,100004.25
2023-03-06T22:52:05.091Z,100007.81
2023-03-06T22:54:31.630Z,100001.69
2023-03-06T22:56:58.186Z,99993.81
2023-03-06T22:59:24.691Z,99996.50
2023-03-06T23:01:51.221Z,100001.78
2023-03-06T23:04:17.762Z,99994.81
2023-03-06T23:06:45.644Z,99994.94
2023-03-06T23:09:16.024Z,99986.91
2023-03-06T23:11:42.646Z,99989.50
2023-03-06T23:14:12.455Z,99990.41
2023-03-06T23:16:39.786Z,99991.31
2023-03-06T23:19:06.869Z,99996.72
2023-03-06T23:21:34.484Z,99997.56
2023-03-06T23:24:01.857Z,99987.13
2023-03-06T23:26:30.374Z,99991.53
2023-03-06T23:28:57.777Z,99991.53
2023-03-06T23:31:30.911Z,99982.75
2023-03-06T23:33:59.902Z,99986.31
2023-03-06T23:36:27.090Z,99987.16
2023-03-06T23:38:54.014Z,99982.75
2023-03-06T23:41:22.069Z,99995.09
2023-03-06T23:43:50.085Z,99988.06
2023-03-06T23:46:17.687Z,99978.38
2023-03-06T23:48:44.383Z,99963.38
2023-03-06T23:51:17.726Z,99970.34
2023-03-06T23:53:46.028Z,99976.41
2023-03-06T23:56:13.345Z,99976.31
2023-03-06T23:58:40.658Z,99984.16
